createdAt,value
2018-08-18T00:00:28.083Z,66.56
2018-08-18T00:03:52.517Z,66.92
2018-08-18T00:07:17.212Z,67.14
2018-08-18T00:10:41.855Z,67.25
2018-08-18T00:14:07.356Z,68.48
2018-08-18T00:17:31.824Z,67.95
2018-08-18T00:20:56.279Z,68.48
2018-08-18T00:24:21.783Z,68.44
2018-08-18T00:27:46.306Z,67.91
2018-08-18T00:31:10.721Z,68.97
2018-08-18T00:34:40.125Z,68.81
2018-08-18T00:38:04.629Z,69.23
2018-08-18T00:41:31.017Z,69.32
2018-08-18T00:44:55.641Z,69.10
2018-08-18T00:48:20.068Z,69.36
2018-08-18T00:51:45.093Z,69.18
2018-08-18T00:55:09.787Z,69.93
2018-08-18T00:58:34.309Z,69.73
2018-08-18T01:01:58.995Z,69.31
2018-08-18T01:05:23.603Z,70.48
2018-08-18T01:08:48.830Z,69.58
2018-08-18T01:12:13.692Z,69.80
2018-08-18T01:15:38.707Z,69.88
2018-08-18T01:19:03.100Z,70.16
2018-08-18T01:22:27.535Z,69.95
2018-08-18T01:25:51.971Z,70.82
2018-08-18T01:29:17.833Z,69.68
2018-08-18T01:32:42.239Z,69.25
2018-08-18T01:36:06.844Z,69.28
2018-08-18T01:39:31.269Z,69.86
2018-08-18T01:42:55.711Z,70.25
2018-08-18T01:46:20.179Z,69.27
2018-08-18T01:49:44.619Z,70.34
2018-08-18T01:53:09.039Z,69.49
2018-08-18T01:56:33.418Z,69.85
2018-08-18T01:59:57.877Z,70.17
2018-08-18T02:03:22.308Z,69.86
2018-08-18T02:06:46.767Z,70.43
2018-08-18T02:10:11.186Z,70.26
2018-08-18T02:13:35.606Z,70.94
2018-08-18T02:17:30.562Z,70.58
2018-08-18T02:20:54.972Z,70.44
2018-08-18T02:24:19.381Z,71.66
2018-08-18T02:27:43.751Z,71.65
2018-08-18T02:31:08.184Z,72.26
2018-08-18T02:34:32.584Z,71.59
2018-08-18T02:37:56.984Z,72.16
2018-08-18T02:41:21.393Z,72.51
2018-08-18T02:44:45.839Z,72.44
2018-08-18T02:48:16.345Z,71.63
2018-08-18T02:51:40.760Z,72.69
2018-08-18T02:55:07.595Z,72.88
2018-08-18T02:58:32.006Z,73.43
2018-08-18T03:01:56.424Z,73.63
2018-08-18T03:05:20.870Z,73.67
2018-08-18T03:08:45.283Z,73.35
2018-08-18T03:12:10.024Z,72.96
2018-08-18T03:15:57.943Z,72.81
2018-08-18T03:19:22.399Z,72.50
2018-08-18T03:22:47.656Z,71.55
2018-08-18T03:26:12.096Z,71.52
2018-08-18T03:29:42.551Z,72.02
2018-08-18T03:33:07.100Z,71.59
2018-08-18T03:36:36.133Z,71.38
2018-08-18T03:40:00.585Z,71.31
2018-08-18T03:43:25.029Z,71.19
2018-08-18T03:46:49.477Z,71.31
2018-08-18T03:50:13.916Z,71.04
2018-08-18T03:53:38.340Z,71.34
2018-08-18T03:57:02.763Z,71.41
2018-08-18T04:00:27.180Z,73.26
2018-08-18T04:03:51.603Z,71.27
2018-08-18T04:07:16.065Z,71.10
2018-08-18T04:10:40.515Z,71.91
2018-08-18T04:14:04.945Z,71.64
2018-08-18T04:17:31.526Z,71.33
2018-08-18T04:20:55.896Z,71.77
2018-08-18T04:24:20.368Z,72.70
2018-08-18T04:27:48.101Z,72.57
2018-08-18T04:31:12.697Z,73.68
2018-08-18T04:34:37.121Z,73.71
2018-08-18T04:38:04.274Z,73.33
2018-08-18T04:41:28.863Z,74.07
2018-08-18T04:44:53.245Z,73.99
2018-08-18T04:48:30.793Z,73.78
2018-08-18T04:51:55.220Z,73.90
2018-08-18T04:55:19.838Z,73.69
2018-08-18T04:58:44.229Z,73.21
2018-08-18T05:02:08.647Z,73.95
2018-08-18T05:05:33.205Z,73.67
2018-08-18T05:08:59.069Z,74.47
2018-08-18T05:12:23.509Z,74.20
2018-08-18T05:15:47.921Z,73.95
2018-08-18T05:19:12.356Z,74.08
2018-08-18T05:22:36.737Z,73.98
2018-08-18T05:26:01.174Z,73.29
2018-08-18T05:29:25.576Z,73.20
2018-08-18T05:32:50.004Z,73.56
2018-08-18T05:36:14.443Z,72.67
2018-08-18T05:39:38.848Z,72.12
2018-08-18T05:43:03.907Z,71.46
2018-08-18T05:46:28.399Z,72.06
2018-08-18T05:49:54.835Z,71.28
2018-08-18T05:53:24.283Z,71.49
2018-08-18T05:56:48.752Z,69.73
2018-08-18T06:00:18.323Z,69.17
2018-08-18T06:03:42.805Z,68.78
2018-08-18T06:07:07.263Z,67.50
2018-08-18T06:10:31.702Z,69.23
2018-08-18T06:13:56.123Z,67.70
2018-08-18T06:17:25.697Z,66.78
2018-08-18T06:20:50.129Z,68.12
2018-08-18T06:24:14.572Z,66.60
2018-08-18T06:27:39.021Z,67.27
2018-08-18T06:31:03.633Z,65.81
2018-08-18T06:34:30.773Z,64.70
2018-08-18T06:38:01.766Z,64.42
2018-08-18T06:41:26.311Z,63.46
2018-08-18T06:44:50.657Z,64.33
2018-08-18T06:48:20.768Z,63.59
2018-08-18T06:51:45.275Z,63.34
2018-08-18T06:55:14.754Z,63.31
2018-08-18T06:58:39.091Z,61.91
2018-08-18T07:02:03.550Z,62.10
2018-08-18T07:05:28.017Z,62.59
2018-08-18T07:08:53.834Z,62.20
2018-08-18T07:12:18.262Z,61.46
2018-08-18T07:15:44.219Z,61.10
2018-08-18T07:19:08.699Z,59.92
2018-08-18T07:22:33.086Z,60.22
2018-08-18T07:25:59.613Z,58.21
2018-08-18T07:29:24.075Z,58.97
2018-08-18T07:32:48.454Z,57.83
2018-08-18T07:36:12.876Z,58.80
2018-08-18T07:39:37.318Z,59.08
2018-08-18T07:43:06.231Z,57.69
2018-08-18T07:46:30.759Z,57.57
2018-08-18T07:49:55.044Z,57.31
2018-08-18T07:53:19.611Z,56.92
2018-08-18T07:56:43.890Z,56.47
2018-08-18T08:00:08.496Z,55.21
2018-08-18T08:03:33.084Z,51.96
2018-08-18T08:06:57.555Z,52.69
2018-08-18T08:10:21.994Z,51.87
2018-08-18T08:13:46.437Z,51.29
2018-08-18T08:17:11.770Z,52.31
2018-08-18T08:20:36.156Z,49.35
2018-08-18T08:24:00.656Z,49.31
2018-08-18T08:27:25.076Z,48.50
2018-08-18T08:30:49.500Z,49.89
2018-08-18T08:34:13.946Z,48.72
2018-08-18T08:37:38.390Z,48.30
2018-08-18T08:41:02.842Z,48.36
2018-08-18T08:44:27.242Z,48.69
2018-08-18T08:47:51.751Z,48.78
2018-08-18T08:51:16.201Z,47.90
2018-08-18T08:54:41.214Z,47.05
2018-08-18T08:58:05.731Z,46.93
2018-08-18T09:01:30.134Z,44.74
2018-08-18T09:04:54.575Z,46.11
2018-08-18T09:08:18.974Z,45.01
2018-08-18T09:11:43.380Z,43.04
2018-08-18T09:15:09.620Z,44.83
2018-08-18T09:18:34.051Z,44.61
2018-08-18T09:22:01.767Z,43.43
2018-08-18T09:25:29.410Z,43.48
2018-08-18T09:28:53.842Z,43.98
2018-08-18T09:32:19.107Z,43.67
2018-08-18T09:36:03.628Z,42.36
2018-08-18T09:39:32.105Z,41.58
2018-08-18T09:42:56.732Z,42.85
2018-08-18T09:46:21.311Z,42.64
2018-08-18T09:49:45.763Z,42.29
2018-08-18T09:53:10.174Z,41.16
2018-08-18T09:56:34.599Z,41.38
2018-08-18T09:59:59.061Z,40.43
2018-08-18T10:03:23.460Z,40.42
2018-08-18T10:06:47.861Z,39.77
2018-08-18T10:10:13.959Z,39.05
2018-08-18T10:13:38.383Z,40.04
2018-08-18T10:17:02.997Z,39.71
2018-08-18T10:20:27.523Z,38.27
2018-08-18T10:23:52.016Z,38.67
2018-08-18T10:27:18.859Z,38.05
2018-08-18T10:30:43.277Z,36.04
2018-08-18T10:34:07.758Z,32.19
2018-08-18T10:37:32.169Z,31.04
2018-08-18T10:40:56.586Z,30.69
2018-08-18T10:44:21.018Z,31.75
2018-08-18T10:47:45.418Z,28.96
2018-08-18T10:52:23.878Z,28.50
2018-08-18T10:55:48.304Z,25.31
2018-08-18T10:59:20.631Z,26.09
2018-08-18T11:02:47.148Z,27.51
2018-08-18T11:06:11.650Z,28.96
2018-08-18T11:09:36.074Z,24.13
2018-08-18T11:13:00.581Z,22.76
2018-08-18T11:16:25.050Z,23.61
2018-08-18T11:19:49.458Z,23.15
2018-08-18T11:23:15.147Z,23.73
2018-08-18T11:26:40.989Z,21.36
2018-08-18T11:30:05.467Z,24.53
2018-08-18T11:33:39.233Z,23.79
2018-08-18T11:37:06.964Z,19.82
2018-08-18T11:40:31.404Z,18.51
2018-08-18T11:43:55.809Z,19.78
2018-08-18T11:47:20.282Z,21.00
2018-08-18T11:50:45.120Z,20.24
2018-08-18T11:54:09.618Z,21.74
2018-08-18T11:57:33.982Z,20.10
2018-08-18T12:00:59.790Z,20.18
2018-08-18T12:04:24.581Z,20.28
2018-08-18T12:07:51.991Z,20.55
2018-08-18T12:11:16.474Z,20.87
2018-08-18T12:14:40.886Z,21.16
2018-08-18T12:18:05.345Z,20.12
2018-08-18T12:21:34.031Z,19.63
2018-08-18T12:25:00.871Z,20.49
2018-08-18T12:28:48.918Z,18.88
2018-08-18T12:32:18.312Z,18.06
2018-08-18T12:35:42.919Z,19.61
2018-08-18T12:39:07.852Z,18.91
2018-08-18T12:42:32.314Z,19.06
2018-08-18T12:45:57.638Z,19.30
2018-08-18T12:49:22.080Z,18.60
2018-08-18T12:52:49.544Z,16.72
2018-08-18T12:56:17.376Z,16.99
2018-08-18T12:59:41.767Z,16.51
2018-08-18T13:03:06.169Z,17.24
2018-08-18T13:06:34.653Z,18.52
2018-08-18T13:10:17.969Z,16.99
2018-08-18T13:13:42.468Z,16.11
2018-08-18T13:17:07.029Z,15.77
2018-08-18T13:20:31.584Z,15.95
2018-08-18T13:23:56.048Z,17.12
2018-08-18T13:27:20.463Z,17.06
2018-08-18T13:30:44.985Z,16.74
2018-08-18T13:34:12.194Z,15.73
2018-08-18T13:37:36.687Z,16.83
2018-08-18T13:41:01.202Z,16.55
2018-08-18T13:44:30.858Z,16.91
2018-08-18T13:47:59.338Z,17.21
2018-08-18T13:51:24.185Z,17.40
2018-08-18T13:54:53.326Z,17.20
2018-08-18T13:58:17.820Z,15.85
2018-08-18T14:01:45.678Z,17.42
2018-08-18T14:05:20.939Z,17.66
2018-08-18T14:08:47.219Z,17.22
2018-08-18T14:12:15.478Z,18.28
2018-08-18T14:15:40.333Z,17.75
2018-08-18T14:19:04.736Z,18.78
2018-08-18T14:22:29.177Z,17.86
2018-08-18T14:25:53.751Z,16.82
2018-08-18T14:29:18.421Z,19.18
2018-08-18T14:32:42.876Z,18.46
2018-08-18T14:36:13.464Z,17.56
2018-08-18T14:39:40.764Z,16.69
2018-08-18T14:43:05.248Z,14.68
2018-08-18T14:46:29.743Z,15.68
2018-08-18T14:50:14.849Z,15.81
2018-08-18T14:53:43.284Z,15.81
2018-08-18T14:57:07.900Z,16.20
2018-08-18T15:00:32.800Z,15.54
2018-08-18T15:03:57.367Z,16.00
2018-08-18T15:07:21.773Z,14.98
2018-08-18T15:10:46.948Z,14.26
2018-08-18T15:14:11.526Z,16.30
2018-08-18T15:17:35.975Z,16.90
2018-08-18T15:21:00.477Z,16.22
2018-08-18T15:24:25.588Z,15.64
2018-08-18T15:27:50.043Z,16.44
2018-08-18T15:31:14.533Z,17.38
2018-08-18T15:34:38.985Z,17.73
2018-08-18T15:38:03.484Z,18.51
2018-08-18T15:41:27.868Z,18.18
2018-08-18T15:45:01.247Z,19.43
2018-08-18T15:48:26.059Z,19.28
2018-08-18T15:51:50.544Z,17.18
2018-08-18T15:55:14.952Z,15.93
2018-08-18T15:58:39.485Z,17.31
2018-08-18T16:02:03.940Z,17.86
2018-08-18T16:05:29.112Z,17.77
2018-08-18T16:08:54.269Z,19.79
2018-08-18T16:12:18.837Z,19.30
2018-08-18T16:15:43.344Z,19.68
2018-08-18T16:19:13.276Z,22.34
2018-08-18T16:22:37.731Z,23.44
2018-08-18T16:26:02.188Z,25.62
2018-08-18T16:29:26.633Z,27.91
2018-08-18T16:33:08.092Z,28.39
2018-08-18T16:36:37.697Z,28.51
2018-08-18T16:40:02.128Z,28.02
2018-08-18T16:43:26.587Z,28.56
2018-08-18T16:46:51.028Z,28.39
2018-08-18T16:50:15.560Z,29.46
2018-08-18T16:53:39.986Z,30.81
2018-08-18T16:57:04.364Z,29.87
2018-08-18T17:00:28.936Z,31.85
2018-08-18T17:03:53.542Z,31.94
2018-08-18T17:07:23.093Z,35.10
2018-08-18T17:10:47.588Z,35.46
2018-08-18T17:14:17.007Z,35.24
2018-08-18T17:17:41.473Z,35.27
2018-08-18T17:21:07.000Z,36.46
2018-08-18T17:24:31.731Z,36.42
2018-08-18T17:27:56.326Z,37.94
2018-08-18T17:31:20.780Z,36.77
2018-08-18T17:34:45.227Z,39.25
2018-08-18T17:38:09.750Z,38.46
2018-08-18T17:41:34.180Z,39.21
2018-08-18T17:44:59.992Z,38.25
2018-08-18T17:48:26.353Z,39.94
2018-08-18T17:52:22.086Z,40.06
2018-08-18T17:55:52.779Z,41.25
2018-08-18T17:59:17.895Z,41.23
2018-08-18T18:02:47.583Z,41.28
2018-08-18T18:06:13.092Z,41.41
2018-08-18T18:09:37.886Z,42.49
2018-08-18T18:13:05.632Z,40.86
2018-08-18T18:16:30.459Z,43.06
2018-08-18T18:19:57.492Z,43.83
2018-08-18T18:23:22.877Z,43.57
2018-08-18T18:26:50.490Z,44.09
2018-08-18T18:30:15.031Z,43.82
2018-08-18T18:33:39.798Z,44.85
2018-08-18T18:37:05.002Z,44.76
2018-08-18T18:40:33.833Z,45.60
2018-08-18T18:44:01.867Z,46.59
2018-08-18T18:47:26.436Z,46.46
2018-08-18T18:50:50.881Z,46.10
2018-08-18T18:54:15.352Z,47.05
2018-08-18T18:57:46.494Z,47.56
2018-08-18T19:01:11.003Z,47.47
2018-08-18T19:04:35.461Z,47.88
2018-08-18T19:08:12.951Z,47.98
2018-08-18T19:11:37.549Z,48.11
2018-08-18T19:15:01.995Z,49.04
2018-08-18T19:18:26.449Z,49.00
2018-08-18T19:21:51.298Z,49.93
2018-08-18T19:25:15.783Z,48.91
2018-08-18T19:28:40.346Z,49.56
2018-08-18T19:32:04.779Z,50.36
2018-08-18T19:35:34.254Z,50.69
2018-08-18T19:38:58.647Z,49.88
2018-08-18T19:42:23.088Z,50.97
2018-08-18T19:45:47.720Z,50.80
2018-08-18T19:49:12.247Z,51.51
2018-08-18T19:52:36.705Z,51.39
2018-08-18T19:56:02.032Z,51.74
2018-08-18T19:59:26.422Z,51.65
2018-08-18T20:03:12.645Z,52.33
2018-08-18T20:06:37.113Z,52.09
2018-08-18T20:10:01.666Z,52.91
2018-08-18T20:13:27.698Z,53.65
2018-08-18T20:16:52.189Z,52.73
2018-08-18T20:20:21.562Z,54.04
2018-08-18T20:23:46.061Z,53.64
2018-08-18T20:27:10.630Z,53.97
2018-08-18T20:30:35.063Z,54.48
2018-08-18T20:33:59.516Z,53.98
2018-08-18T20:37:23.942Z,55.33
2018-08-18T20:40:48.391Z,55.73
2018-08-18T20:44:12.836Z,56.51
2018-08-18T20:47:37.376Z,56.55
2018-08-18T20:51:01.854Z,56.21
2018-08-18T20:54:26.316Z,57.50
2018-08-18T20:57:50.747Z,57.02
2018-08-18T21:01:15.173Z,58.17
2018-08-18T21:04:41.619Z,57.10
2018-08-18T21:08:11.416Z,58.10
2018-08-18T21:11:35.858Z,58.64
2018-08-18T21:15:00.267Z,58.17
2018-08-18T21:18:24.676Z,57.91
2018-08-18T21:21:49.139Z,58.35
2018-08-18T21:25:14.362Z,58.27
2018-08-18T21:28:38.973Z,58.65
2018-08-18T21:32:03.383Z,59.82
2018-08-18T21:35:27.812Z,58.74
2018-08-18T21:38:52.375Z,59.04
2018-08-18T21:42:16.838Z,59.61
2018-08-18T21:49:33.283Z,60.25
2018-08-18T21:52:57.736Z,60.71
2018-08-18T21:56:22.150Z,61.08
2018-08-18T21:59:55.966Z,60.59
2018-08-18T22:03:20.392Z,61.37
2018-08-18T22:06:44.814Z,61.07
2018-08-18T22:10:10.751Z,61.43
2018-08-18T22:13:42.961Z,61.91
2018-08-18T22:17:07.638Z,61.20
2018-08-18T22:20:32.185Z,62.63
2018-08-18T22:23:58.643Z,62.40
2018-08-18T22:27:23.086Z,62.67
2018-08-18T22:30:47.538Z,63.53
2018-08-18T22:34:11.976Z,63.50
2018-08-18T22:37:36.420Z,63.89
2018-08-18T22:41:00.885Z,63.86
2018-08-18T22:44:25.414Z,63.70
2018-08-18T22:47:49.914Z,64.92
2018-08-18T22:51:14.334Z,64.17
2018-08-18T22:54:38.754Z,64.55
2018-08-18T22:58:03.265Z,64.37
2018-08-18T23:01:27.648Z,64.75
2018-08-18T23:04:52.059Z,64.93
2018-08-18T23:08:17.765Z,65.14
2018-08-18T23:11:42.175Z,65.53
2018-08-18T23:15:07.077Z,65.26
2018-08-18T23:18:31.516Z,65.82
2018-08-18T23:21:55.938Z,65.64
2018-08-18T23:25:20.390Z,65.49
2018-08-18T23:28:45.154Z,65.68
2018-08-18T23:32:16.364Z,65.83
2018-08-18T23:35:40.834Z,65.41
2018-08-18T23:39:06.521Z,65.31
2018-08-18T23:42:30.942Z,64.57
2018-08-18T23:45:55.511Z,64.66
2018-08-18T23:49:19.935Z,65.54
2018-08-18T23:52:56.671Z,65.48
2018-08-18T23:56:21.208Z,65.55
2018-08-18T23:59:46.192Z,66.09
